Time;durP1;ratioP1;P1;durP2;ratioP2;P2;SDS_P1;SDS_P2;PMS_P1;PMS_P2;Temp;Humidity;BMP_temperature;BMP_pressure;BME280_temperature;BME280_humidity;BME280_pressure;Samples;Min_cycle;Max_cycle;Signal;HPM_P1;HPM_P2
2024/02/13 00:00:26;;;;;;;2.45;2.00;;;15.70;59.70;;;;;;5113304;28;20177;-67
2024/02/13 00:02:52;;;;;;;1.85;1.60;;;15.70;59.70;;;;;;5113519;28;20222;-68
2024/02/13 00:05:18;;;;;;;2.05;1.83;;;15.70;59.60;;;;;;5112519;28;20177;-68
2024/02/13 00:07:43;;;;;;;2.13;1.92;;;15.70;59.60;;;;;;5113237;28;20551;-68
2024/02/13 00:10:10;;;;;;;2.28;1.48;;;15.60;59.60;;;;;;5113611;28;20655;-68
2024/02/13 00:12:36;;;;;;;2.63;2.08;;;15.60;59.60;;;;;;5112449;28;20177;-68
2024/02/13 00:15:01;;;;;;;2.33;2.00;;;15.60;59.50;;;;;;5113162;28;20265;-67
2024/02/13 00:17:28;;;;;;;3.60;1.70;;;15.70;59.60;;;;;;5112886;28;20169;-67
2024/02/13 00:19:55;;;;;;;3.03;2.22;;;15.60;59.50;;;;;;5111985;28;20181;-67
2024/02/13 00:22:24;;;;;;;2.53;1.80;;;15.60;59.50;;;;;;5112902;28;20188;-69
2024/02/13 00:24:50;;;;;;;1.88;1.70;;;15.60;59.50;;;;;;5112992;28;20173;-66
2024/02/13 00:27:16;;;;;;;1.75;1.63;;;15.60;59.80;;;;;;5112649;28;20180;-69
2024/02/13 00:29:44;;;;;;;1.98;1.73;;;15.50;59.50;;;;;;5112994;28;20170;-68
2024/02/13 00:32:13;;;;;;;2.28;1.92;;;15.60;59.50;;;;;;5112608;28;20189;-69
2024/02/13 00:34:39;;;;;;;3.20;1.90;;;15.50;59.50;;;;;;5112492;28;20251;-70
2024/02/13 00:37:05;;;;;;;2.55;1.90;;;15.50;60.20;;;;;;5111939;28;20173;-70
2024/02/13 00:39:30;;;;;;;1.85;1.73;;;15.50;59.50;;;;;;5111819;28;20323;-70
2024/02/13 00:41:56;;;;;;;2.78;1.90;;;15.50;59.50;;;;;;5112904;28;20252;-68
2024/02/13 00:44:22;;;;;;;2.22;1.90;;;15.50;59.50;;;;;;5112594;28;20172;-70
2024/02/13 00:46:48;;;;;;;2.80;2.20;;;15.50;59.50;;;;;;5112094;28;20536;-71
2024/02/13 00:49:14;;;;;;;2.05;1.75;;;15.50;59.40;;;;;;5112737;28;20178;-70
2024/02/13 00:51:41;;;;;;;1.92;1.77;;;15.50;59.50;;;;;;5112333;28;20620;-69
2024/02/13 00:54:13;;;;;;;2.92;1.90;;;15.50;59.50;;;;;;5111935;28;20221;-69
2024/02/13 00:56:40;;;;;;;2.53;1.77;;;15.50;59.40;;;;;;5112420;28;20268;-69
2024/02/13 00:59:07;;;;;;;2.08;1.83;;;15.50;59.40;;;;;;5112598;28;20251;-69
2024/02/13 01:01:33;;;;;;;2.22;1.90;;;15.40;59.40;;;;;;5111622;28;20177;-69
2024/02/13 01:03:58;;;;;;;2.72;2.05;;;15.40;59.40;;;;;;5112647;28;20169;-69
2024/02/13 01:06:24;;;;;;;2.80;2.05;;;15.40;59.40;;;;;;5112395;28;20674;-70
2024/02/13 01:08:49;;;;;;;2.05;1.90;;;15.40;59.40;;;;;;5112041;28;20539;-68
2024/02/13 01:11:17;;;;;;;2.80;2.08;;;15.40;59.40;;;;;;5112590;28;20203;-69
2024/02/13 01:13:43;;;;;;;2.78;1.90;;;15.40;59.40;;;;;;5112310;28;20184;-69
2024/02/13 01:16:09;;;;;;;2.35;1.90;;;15.40;59.40;;;;;;5111825;28;20176;-67
2024/02/13 01:18:35;;;;;;;2.10;1.90;;;15.40;59.40;;;;;;5112574;28;20222;-67
2024/02/13 01:21:00;;;;;;;2.20;1.90;;;15.40;59.30;;;;;;5112656;28;20256;-68
2024/02/13 01:23:27;;;;;;;2.92;2.10;;;15.40;59.30;;;;;;5111447;28;20319;-67
2024/02/13 01:25:52;;;;;;;2.42;1.80;;;15.40;59.40;;;;;;5112508;28;20184;-67
2024/02/13 01:28:19;;;;;;;2.22;2.03;;;15.40;59.40;;;;;;5112174;28;20177;-70
2024/02/13 01:30:45;;;;;;;2.00;1.83;;;15.40;59.30;;;;;;5112396;28;20195;-68
2024/02/13 01:33:10;;;;;;;2.47;1.95;;;15.40;59.30;;;;;;5116377;28;20697;-67
2024/02/13 01:35:42;;;;;;;2.40;1.80;;;15.30;59.30;;;;;;5115352;28;20205;-69
2024/02/13 01:38:09;;;;;;;3.42;2.03;;;15.30;59.30;;;;;;5116505;28;20205;-70
2024/02/13 01:40:35;;;;;;;1.90;1.80;;;15.30;59.30;;;;;;5116073;28;20172;-69
2024/02/13 01:43:02;;;;;;;2.67;1.85;;;15.30;59.20;;;;;;5115502;28;20173;-68
2024/02/13 01:45:28;;;;;;;3.38;1.98;;;15.30;59.20;;;;;;5115860;28;20195;-69
2024/02/13 01:47:54;;;;;;;2.03;1.83;;;15.30;59.20;;;;;;5116376;28;20583;-69
2024/02/13 01:50:20;;;;;;;1.95;1.85;;;15.30;59.20;;;;;;5114015;28;20169;-69
2024/02/13 01:52:46;;;;;;;2.45;1.90;;;15.30;59.20;;;;;;5115991;28;20650;-69
2024/02/13 01:55:14;;;;;;;3.00;2.05;;;15.30;59.20;;;;;;5114612;28;20233;-68
2024/02/13 01:57:40;;;;;;;2.00;1.80;;;15.20;59.10;;;;;;5113737;28;20177;-68
2024/02/13 02:00:13;;;;;;;2.42;1.90;;;15.20;59.20;;;;;;5114617;28;20188;-68
2024/02/13 02:02:42;;;;;;;1.92;1.80;;;15.20;59.20;;;;;;5115824;28;20271;-68
2024/02/13 02:05:10;;;;;;;3.15;2.28;;;15.20;59.20;;;;;;5114081;28;20233;-68
2024/02/13 02:07:42;;;;;;;1.50;1.40;;;15.20;59.10;;;;;;5114356;28;20393;-69
2024/02/13 02:10:08;;;;;;;2.10;1.88;;;15.20;59.10;;;;;;5115764;28;20714;-69
2024/02/13 02:12:38;;;;;;;2.95;1.90;;;15.20;59.10;;;;;;5114612;27;20310;-68
2024/02/13 02:15:04;;;;;;;2.63;2.05;;;15.20;59.10;;;;;;5114544;28;20223;-68
2024/02/13 02:17:29;;;;;;;3.22;2.10;;;15.20;59.10;;;;;;5114768;28;20261;-68
2024/02/13 02:19:56;;;;;;;2.95;2.13;;;15.20;59.10;;;;;;5114947;28;20222;-67
2024/02/13 02:22:22;;;;;;;2.55;2.35;;;15.20;59.10;;;;;;5115244;28;20188;-67
2024/02/13 02:24:48;;;;;;;1.90;1.70;;;15.20;59.10;;;;;;5114624;28;20208;-67
2024/02/13 02:27:14;;;;;;;2.00;1.80;;;15.20;59.10;;;;;;5115337;28;20254;-67
2024/02/13 02:29:40;;;;;;;1.92;1.60;;;15.20;59.00;;;;;;5113787;28;20173;-68
2024/02/13 02:32:08;;;;;;;2.30;2.10;;;15.20;59.10;;;;;;5114783;28;20188;-68
2024/02/13 02:34:34;;;;;;;1.90;1.80;;;15.10;59.00;;;;;;5113617;28;20223;-69
2024/02/13 02:36:59;;;;;;;2.22;2.00;;;15.10;59.00;;;;;;5115246;28;20177;-69
2024/02/13 02:39:25;;;;;;;2.75;2.28;;;15.10;59.00;;;;;;5114196;28;20201;-68
2024/02/13 02:41:51;;;;;;;2.20;2.00;;;15.10;59.00;;;;;;5115057;28;20178;-68
2024/02/13 02:44:18;;;;;;;2.17;1.65;;;15.10;59.00;;;;;;5114455;28;20184;-69
2024/02/13 02:46:44;;;;;;;2.63;1.85;;;15.10;59.00;;;;;;5114404;28;20256;-69
2024/02/13 02:49:10;;;;;;;2.95;2.08;;;15.10;59.00;;;;;;5114956;28;20708;-69
2024/02/13 02:51:36;;;;;;;2.25;1.98;;;15.10;59.00;;;;;;5114714;28;20550;-68
2024/02/13 02:54:01;;;;;;;2.55;2.08;;;15.10;59.00;;;;;;5113842;28;20235;-68
2024/02/13 02:56:27;;;;;;;2.65;2.03;;;15.10;59.00;;;;;;5114358;28;20181;-68
2024/02/13 02:58:54;;;;;;;2.10;1.90;;;15.10;59.00;;;;;;5114958;28;20172;-68
2024/02/13 03:01:20;;;;;;;1.85;1.75;;;15.10;59.00;;;;;;5113916;28;20173;-68
2024/02/13 03:03:46;;;;;;;1.63;1.50;;;15.00;58.90;;;;;;5114833;28;20246;-68
2024/02/13 03:06:13;;;;;;;2.85;1.52;;;15.10;59.00;;;;;;5114665;28;20510;-69
2024/02/13 03:08:38;;;;;;;3.40;2.05;;;15.00;58.90;;;;;;5113551;28;20188;-69
2024/02/13 03:11:04;;;;;;;2.83;2.00;;;15.00;58.90;;;;;;5114315;28;20268;-68
2024/02/13 03:13:32;;;;;;;2.00;1.80;;;15.40;59.10;;;;;;5114410;28;20252;-69
2024/02/13 03:15:57;;;;;;;1.90;1.73;;;15.00;58.90;;;;;;5113887;28;20221;-68
2024/02/13 03:18:24;;;;;;;2.63;2.20;;;15.00;58.90;;;;;;5114091;28;20173;-68
2024/02/13 03:20:49;;;;;;;2.65;1.60;;;15.00;58.90;;;;;;5114417;28;20259;-67
2024/02/13 03:23:16;;;;;;;2.28;1.75;;;15.00;58.90;;;;;;5113615;28;20276;-68
2024/02/13 03:25:41;;;;;;;2.35;2.05;;;15.00;59.60;;;;;;5114049;28;20644;-68
2024/02/13 03:28:07;;;;;;;2.80;2.22;;;15.00;58.90;;;;;;5113461;28;20282;-68
2024/02/13 03:30:33;;;;;;;2.00;1.70;;;15.00;58.90;;;;;;5114026;28;20268;-68
2024/02/13 03:32:59;;;;;;;2.90;1.80;;;15.00;58.90;;;;;;5114040;28;20256;-68
2024/02/13 03:35:25;;;;;;;2.72;1.92;;;14.90;58.80;;;;;;5113057;28;20220;-68
2024/02/13 03:37:50;;;;;;;2.22;2.03;;;15.00;58.90;;;;;;5113974;28;20592;-69
2024/02/13 03:40:16;;;;;;;2.45;1.95;;;14.90;58.90;;;;;;5113929;28;20180;-68
2024/02/13 03:42:45;;;;;;;2.80;2.38;;;14.90;58.90;;;;;;5113219;28;20169;-69
2024/02/13 03:45:10;;;;;;;2.10;1.83;;;15.00;58.90;;;;;;5114013;28;20184;-69
2024/02/13 03:47:36;;;;;;;2.35;2.03;;;15.00;58.90;;;;;;5113578;28;20615;-69
2024/02/13 03:50:02;;;;;;;2.75;1.77;;;14.90;58.80;;;;;;5113003;28;20586;-69
2024/02/13 03:52:28;;;;;;;2.30;1.90;;;14.90;58.80;;;;;;5113338;28;20226;-68
2024/02/13 03:54:53;;;;;;;2.25;1.70;;;14.90;58.80;;;;;;5112610;28;20235;-68
2024/02/13 03:57:19;;;;;;;2.70;1.98;;;14.90;58.80;;;;;;5112736;28;20563;-68
2024/02/13 03:59:44;;;;;;;2.28;1.85;;;14.90;58.80;;;;;;5113862;28;20635;-68
2024/02/13 04:02:11;;;;;;;1.85;1.75;;;14.90;58.80;;;;;;5113614;28;20177;-68
2024/02/13 04:04:36;;;;;;;2.78;1.67;;;14.90;58.80;;;;;;5112536;28;20204;-68
2024/02/13 04:07:04;;;;;;;2.20;1.85;;;14.90;58.80;;;;;;5113498;28;20175;-69
2024/02/13 04:09:30;;;;;;;1.58;1.48;;;14.90;58.80;;;;;;5113337;28;20181;-69
2024/02/13 04:11:56;;;;;;;2.35;2.15;;;14.90;58.80;;;;;;5112648;28;20180;-69
2024/02/13 04:14:23;;;;;;;2.58;1.92;;;14.90;58.80;;;;;;5112909;28;20201;-68
2024/02/13 04:16:49;;;;;;;2.13;1.90;;;14.90;58.80;;;;;;5113313;28;20207;-68
2024/02/13 04:19:14;;;;;;;2.92;2.28;;;14.90;58.80;;;;;;5112617;28;20635;-68
2024/02/13 04:21:40;;;;;;;2.88;2.10;;;14.90;58.80;;;;;;5112856;28;20173;-68
2024/02/13 04:24:09;;;;;;;2.95;2.05;;;14.80;58.70;;;;;;5113318;28;20237;-68
2024/02/13 04:26:41;;;;;;;3.92;2.00;;;14.80;58.70;;;;;;5112130;27;20639;-68
2024/02/13 04:29:07;;;;;;;1.63;1.52;;;14.80;58.70;;;;;;5113250;28;20268;-68
2024/02/13 04:31:32;;;;;;;3.00;2.08;;;14.80;58.70;;;;;;5112199;28;20173;-69
2024/02/13 04:33:58;;;;;;;2.92;1.65;;;14.80;58.70;;;;;;5112937;28;20201;-69
2024/02/13 04:36:24;;;;;;;4.10;2.45;;;14.80;58.70;;;;;;5112579;28;20185;-71
2024/02/13 04:38:49;;;;;;;2.30;2.10;;;14.80;58.70;;;;;;5112456;28;20165;-70
2024/02/13 04:41:18;;;;;;;2.00;1.80;;;14.80;58.70;;;;;;5113014;28;20166;-70
2024/02/13 04:43:43;;;;;;;2.85;1.92;;;14.80;58.70;;;;;;5112938;28;20177;-71
2024/02/13 04:46:09;;;;;;;2.28;1.90;;;14.80;58.70;;;;;;5112221;28;20578;-71
2024/02/13 04:48:35;;;;;;;1.92;1.70;;;14.80;58.70;;;;;;5112490;28;20188;-70
2024/02/13 04:51:01;;;;;;;2.20;1.60;;;14.80;58.70;;;;;;5112771;28;20177;-70
2024/02/13 04:53:27;;;;;;;2.28;2.05;;;14.80;58.70;;;;;;5111745;28;20169;-69
2024/02/13 04:55:55;;;;;;;2.03;1.70;;;14.80;58.70;;;;;;5112844;28;20220;-69
2024/02/13 04:58:20;;;;;;;1.80;1.70;;;14.80;58.80;;;;;;5112405;28;20169;-70
2024/02/13 05:01:01;;;;;;;2.00;1.77;;;14.70;59.30;;;;;;5112038;28;20197;-69
2024/02/13 05:03:39;;;;;;;2.13;1.92;;;14.70;58.70;;;;;;5111219;28;20177;-70
2024/02/13 05:08:55;;;;;;;2.25;1.90;;;14.70;58.70;;;;;;5112079;28;20172;-70
2024/02/13 05:11:24;;;;;;;1.90;1.70;;;14.70;58.70;;;;;;5112198;28;20177;-69
2024/02/13 05:13:50;;;;;;;2.28;1.67;;;14.70;58.70;;;;;;5111693;28;20169;-69
2024/02/13 05:16:17;;;;;;;2.80;1.95;;;14.70;58.70;;;;;;5112808;28;20645;-69
2024/02/13 05:18:44;;;;;;;3.58;2.20;;;14.70;58.70;;;;;;5112637;28;20239;-69
2024/02/13 05:21:09;;;;;;;2.17;2.00;;;14.70;58.70;;;;;;5111836;28;20644;-69
2024/02/13 05:23:35;;;;;;;2.22;1.98;;;14.70;58.70;;;;;;5112269;28;20175;-70
2024/02/13 05:26:02;;;;;;;2.33;1.73;;;14.70;58.70;;;;;;5112509;28;20631;-68
2024/02/13 05:28:27;;;;;;;2.30;2.10;;;14.70;58.70;;;;;;5111317;28;20230;-68
2024/02/13 05:30:53;;;;;;;2.42;1.92;;;14.60;58.60;;;;;;5112578;28;20169;-69
2024/02/13 05:33:18;;;;;;;2.63;1.98;;;14.70;58.70;;;;;;5112105;28;20173;-69
2024/02/13 05:35:46;;;;;;;2.38;2.13;;;14.70;58.70;;;;;;5111425;28;20258;-70
2024/02/13 05:38:12;;;;;;;1.98;1.80;;;14.70;58.70;;;;;;5112213;28;20173;-70
2024/02/13 05:40:38;;;;;;;2.15;1.88;;;14.60;58.60;;;;;;5112239;28;20203;-70
2024/02/13 05:43:06;;;;;;;2.50;2.13;;;14.60;58.60;;;;;;5111285;28;20170;-69
2024/02/13 05:45:31;;;;;;;2.75;2.03;;;14.60;58.60;;;;;;5112036;28;20185;-69
2024/02/13 05:47:57;;;;;;;3.85;2.25;;;14.60;58.60;;;;;;5112260;28;20222;-69
2024/02/13 05:50:23;;;;;;;2.60;2.35;;;14.60;58.60;;;;;;5111065;28;20654;-69
2024/02/13 05:52:49;;;;;;;2.20;2.00;;;14.70;58.60;;;;;;5112456;28;20173;-69
2024/02/13 05:55:16;;;;;;;2.75;2.10;;;14.70;58.50;;;;;;5111946;28;20221;-69
2024/02/13 05:57:41;;;;;;;1.80;1.70;;;14.80;58.40;;;;;;5111148;28;20173;-69
2024/02/13 06:00:09;;;;;;;2.10;1.88;;;14.80;58.40;;;;;;5112290;28;20176;-68
2024/02/13 06:02:35;;;;;;;1.67;1.58;;;15.00;58.30;;;;;;5111994;28;20244;-69
2024/02/13 06:05:01;;;;;;;1.98;1.75;;;15.10;58.30;;;;;;5111513;28;20165;-69
2024/02/13 06:07:27;;;;;;;2.03;1.63;;;15.20;58.20;;;;;;5111910;28;20185;-69
2024/02/13 06:09:53;;;;;;;2.45;2.25;;;15.20;58.10;;;;;;5111454;28;20509;-69
2024/02/13 06:12:18;;;;;;;2.22;1.80;;;15.30;58.10;;;;;;5111849;28;20280;-69
2024/02/13 06:14:47;;;;;;;1.60;1.50;;;15.40;58.00;;;;;;5112286;28;20582;-70
2024/02/13 06:17:13;;;;;;;1.88;1.70;;;15.50;57.90;;;;;;5111350;28;20335;-66
2024/02/13 06:19:38;;;;;;;1.88;1.77;;;15.60;57.70;;;;;;5115156;28;20263;-68
2024/02/13 06:22:04;;;;;;;2.55;1.90;;;15.70;57.50;;;;;;5115666;28;20196;-68
2024/02/13 06:24:29;;;;;;;2.15;1.58;;;15.80;57.30;;;;;;5114392;28;20325;-68
2024/02/13 06:26:55;;;;;;;2.78;1.88;;;15.90;57.10;;;;;;5115401;28;20188;-68
2024/02/13 06:29:21;;;;;;;2.10;1.80;;;16.00;57.10;;;;;;5115271;28;20173;-68
2024/02/13 06:31:46;;;;;;;2.08;1.88;;;16.00;57.10;;;;;;5114527;28;20177;-69
2024/02/13 06:34:15;;;;;;;2.13;1.92;;;16.10;57.00;;;;;;5115271;28;20285;-69
2024/02/13 06:36:41;;;;;;;2.08;1.88;;;16.10;57.60;;;;;;5115009;28;20201;-70
2024/02/13 06:39:07;;;;;;;1.80;1.70;;;16.10;57.00;;;;;;5114398;28;20209;-69
2024/02/13 06:41:32;;;;;;;2.70;1.98;;;16.10;56.90;;;;;;5115059;28;20265;-69
2024/02/13 06:43:58;;;;;;;1.77;1.58;;;16.10;56.90;;;;;;5115302;28;20173;-69
2024/02/13 06:46:23;;;;;;;2.65;1.60;;;16.10;56.90;;;;;;5114221;28;20173;-69
2024/02/13 06:48:52;;;;;;;1.70;1.40;;;16.20;56.90;;;;;;5115121;27;20169;-69
2024/02/13 06:51:17;;;;;;;2.60;1.80;;;16.20;56.90;;;;;;5114790;28;20252;-70
2024/02/13 06:53:43;;;;;;;2.90;2.00;;;16.30;56.90;;;;;;5113913;28;20366;-69
2024/02/13 06:56:09;;;;;;;1.80;1.55;;;16.40;56.70;;;;;;5114906;28;20185;-68
2024/02/13 06:58:37;;;;;;;2.05;1.63;;;16.60;56.60;;;;;;5114491;28;20181;-68
2024/02/13 07:01:02;;;;;;;1.55;1.45;;;16.70;56.30;;;;;;5114104;28;20227;-68
2024/02/13 07:03:31;;;;;;;2.00;1.60;;;16.90;56.10;;;;;;5114446;28;20165;-68
2024/02/13 07:05:57;;;;;;;1.75;1.60;;;16.90;56.60;;;;;;5114723;28;20244;-69
2024/02/13 07:08:22;;;;;;;1.40;1.30;;;17.00;55.70;;;;;;5113587;28;20193;-69
2024/02/13 07:10:48;;;;;;;1.50;1.40;;;17.10;55.70;;;;;;5114574;28;20918;-69
2024/02/13 07:13:13;;;;;;;2.97;1.77;;;17.20;55.60;;;;;;5112557;28;20191;-69
2024/02/13 07:15:39;;;;;;;1.90;1.67;;;17.10;55.60;;;;;;5114021;28;20213;-68
2024/02/13 07:18:06;;;;;;;2.03;1.48;;;17.30;55.50;;;;;;5114619;28;20173;-68
2024/02/13 07:20:32;;;;;;;1.77;1.65;;;17.30;55.30;;;;;;5113365;28;20660;-68
2024/02/13 07:23:04;;;;;;;2.65;1.77;;;17.30;55.40;;;;;;5112997;28;20177;-69
2024/02/13 07:25:29;;;;;;;1.70;1.60;;;17.20;55.40;;;;;;5114227;28;20173;-69
2024/02/13 07:27:55;;;;;;;2.13;1.85;;;17.20;55.60;;;;;;5113616;28;20264;-69
2024/02/13 07:30:21;;;;;;;1.67;1.58;;;17.10;55.70;;;;;;5113634;28;20635;-69
2024/02/13 07:32:47;;;;;;;1.92;1.33;;;17.10;55.80;;;;;;5114248;28;20185;-69
2024/02/13 07:35:14;;;;;;;2.22;1.98;;;17.20;55.80;;;;;;5113260;28;20740;-70
2024/02/13 07:37:39;;;;;;;2.13;1.50;;;17.00;55.80;;;;;;5113701;28;20199;-70
2024/02/13 07:40:07;;;;;;;2.40;1.80;;;17.00;55.90;;;;;;5114217;28;20635;-70
2024/02/13 07:42:32;;;;;;;1.58;1.48;;;16.90;56.10;;;;;;5113148;28;20225;-70
2024/02/13 07:44:58;;;;;;;1.50;1.35;;;16.90;56.20;;;;;;5114097;28;20181;-70
2024/02/13 07:47:27;;;;;;;2.03;1.60;;;16.90;56.30;;;;;;5113620;28;20718;-70
2024/02/13 07:49:58;;;;;;;1.55;1.45;;;16.90;56.20;;;;;;5113105;28;20169;-70
2024/02/13 07:52:23;;;;;;;1.42;1.33;;;17.00;56.20;;;;;;5113690;28;20391;-69
2024/02/13 07:54:50;;;;;;;1.50;1.40;;;17.00;56.10;;;;;;5113390;28;20597;-69
2024/02/13 07:57:16;;;;;;;1.50;1.40;;;17.10;56.00;;;;;;5113078;28;20177;-69
2024/02/13 07:59:42;;;;;;;1.30;1.20;;;17.20;56.00;;;;;;5113463;28;20183;-69
2024/02/13 08:02:09;;;;;;;2.05;1.77;;;17.20;55.90;;;;;;5113456;28;20700;-69
2024/02/13 08:04:35;;;;;;;2.17;1.40;;;17.20;55.80;;;;;;5112323;28;20257;-70
2024/02/13 08:07:01;;;;;;;1.98;1.67;;;17.20;55.80;;;;;;5113369;28;20181;-70
2024/02/13 08:09:27;;;;;;;1.88;1.50;;;17.20;55.70;;;;;;5112651;28;20268;-70
2024/02/13 08:11:53;;;;;;;3.35;1.63;;;17.30;55.80;;;;;;5113283;28;20169;-69
2024/02/13 08:14:19;;;;;;;2.15;1.70;;;17.30;55.80;;;;;;5112978;28;20219;-70
2024/02/13 08:16:45;;;;;;;1.83;1.63;;;17.30;55.70;;;;;;5112661;28;20169;-69
2024/02/13 08:19:11;;;;;;;1.98;1.70;;;17.40;55.70;;;;;;5113242;28;20535;-69
2024/02/13 08:21:37;;;;;;;2.00;1.40;;;17.40;55.60;;;;;;5113192;28;20259;-69
2024/02/13 08:24:05;;;;;;;1.90;1.40;;;17.40;55.60;;;;;;5112576;28;20303;-68
2024/02/13 08:26:31;;;;;;;2.60;1.77;;;17.40;55.50;;;;;;5112863;28;20234;-68
2024/02/13 08:28:57;;;;;;;1.85;1.50;;;17.40;55.40;;;;;;5113235;28;20169;-72
2024/02/13 08:31:23;;;;;;;2.20;1.60;;;17.50;55.50;;;;;;5111767;28;20165;-70
2024/02/13 08:33:48;;;;;;;3.78;1.77;;;17.50;55.60;;;;;;5112757;28;20538;-71
2024/02/13 08:36:15;;;;;;;2.13;1.55;;;17.40;55.60;;;;;;5113117;28;20219;-69
2024/02/13 08:38:41;;;;;;;2.20;1.70;;;17.40;55.70;;;;;;5111388;28;20169;-71
2024/02/13 08:41:07;;;;;;;2.28;1.58;;;17.40;55.90;;;;;;5112327;28;20643;-72
2024/02/13 08:43:33;;;;;;;3.85;1.85;;;17.30;56.00;;;;;;5112262;28;20189;-73
2024/02/13 08:46:00;;;;;;;2.03;1.38;;;17.30;56.20;;;;;;5112135;28;20222;-72
2024/02/13 08:48:25;;;;;;;2.78;1.67;;;17.20;56.30;;;;;;5112348;28;20204;-71
2024/02/13 08:50:53;;;;;;;2.33;1.60;;;17.20;56.60;;;;;;5112907;28;20200;-74
2024/02/13 08:53:19;;;;;;;4.20;1.60;;;17.20;56.70;;;;;;5111680;28;20217;-73
2024/02/13 08:55:44;;;;;;;4.65;1.85;;;17.20;56.80;;;;;;5112831;28;20213;-74
2024/02/13 08:58:10;;;;;;;2.40;1.50;;;17.20;56.90;;;;;;5112754;28;20165;-74
2024/02/13 09:00:35;;;;;;;2.60;1.48;;;17.20;56.90;;;;;;5111622;28;20196;-74
2024/02/13 09:03:01;;;;;;;4.22;1.80;;;17.10;57.00;;;;;;5112539;28;20180;-74
2024/02/13 09:05:27;;;;;;;2.92;1.85;;;17.10;57.10;;;;;;5112576;28;20180;-73
2024/02/13 09:07:53;;;;;;;2.38;1.60;;;17.10;57.20;;;;;;5112058;28;20194;-74
2024/02/13 09:10:18;;;;;;;2.08;1.67;;;17.10;57.10;;;;;;5112179;28;20710;-73
2024/02/13 09:12:45;;;;;;;2.58;1.70;;;17.00;57.20;;;;;;5111468;28;20666;-75
2024/02/13 09:15:11;;;;;;;2.45;1.80;;;17.00;57.50;;;;;;5112487;28;20220;-75
2024/02/13 09:17:43;;;;;;;1.88;1.40;;;17.00;57.40;;;;;;5111938;28;20173;-74
2024/02/13 09:20:14;;;;;;;4.60;1.70;;;17.00;57.40;;;;;;5111498;28;20234;-73
2024/02/13 09:22:44;;;;;;;2.67;1.42;;;17.00;57.60;;;;;;5110813;28;20253;-74
2024/02/13 09:25:22;;;;;;;1.73;1.35;;;17.00;57.60;;;;;;5110643;28;20303;-73
2024/02/13 09:27:48;;;;;;;2.95;1.25;;;17.00;57.60;;;;;;5110792;28;20316;-73
2024/02/13 09:30:13;;;;;;;2.13;1.83;;;17.00;57.60;;;;;;5111030;28;20173;-73
2024/02/13 09:32:39;;;;;;;2.17;1.98;;;17.10;57.60;;;;;;5111102;28;20948;-73
2024/02/13 09:35:07;;;;;;;4.35;1.83;;;17.10;57.60;;;;;;5110613;28;20205;-73
2024/02/13 09:37:32;;;;;;;3.58;2.08;;;17.10;57.70;;;;;;5111738;28;20569;-74
2024/02/13 09:39:58;;;;;;;3.53;1.58;;;17.10;57.60;;;;;;5112341;28;20712;-69
2024/02/13 09:42:24;;;;;;;2.78;1.45;;;17.10;57.70;;;;;;5111068;28;20176;-70
2024/02/13 09:44:50;;;;;;;2.17;1.63;;;17.10;57.60;;;;;;5111667;28;20184;-70
2024/02/13 09:47:16;;;;;;;2.58;1.85;;;17.20;57.70;;;;;;5112036;28;20260;-70
2024/02/13 09:49:43;;;;;;;3.80;1.65;;;17.20;57.70;;;;;;5111037;28;20260;-69
2024/02/13 09:52:12;;;;;;;3.47;1.60;;;17.20;57.70;;;;;;5110615;28;20177;-69
2024/02/13 09:54:39;;;;;;;2.58;1.20;;;17.20;57.70;;;;;;5114966;28;20255;-68
2024/02/13 09:57:05;;;;;;;1.52;1.20;;;17.10;57.70;;;;;;5114100;28;20237;-71
2024/02/13 09:59:30;;;;;;;1.52;1.42;;;17.10;57.80;;;;;;5114448;28;20250;-68
2024/02/13 10:01:59;;;;;;;3.47;1.40;;;17.00;57.80;;;;;;5115210;28;20169;-68
2024/02/13 10:04:24;;;;;;;3.15;1.50;;;17.00;57.90;;;;;;5114381;28;20632;-72
2024/02/13 10:06:50;;;;;;;3.08;1.50;;;17.10;58.00;;;;;;5115897;28;20173;-69
2024/02/13 10:09:16;;;;;;;3.75;1.38;;;17.00;58.10;;;;;;5113992;28;20176;-69
2024/02/13 10:11:42;;;;;;;4.10;1.70;;;17.00;58.10;;;;;;5114379;28;20165;-69
2024/02/13 10:14:16;;;;;;;2.97;1.58;;;17.00;58.20;;;;;;5115896;28;20222;-69
2024/02/13 10:16:42;;;;;;;3.65;1.50;;;17.00;58.10;;;;;;5114906;28;20173;-69
2024/02/13 10:19:08;;;;;;;3.10;1.30;;;16.90;58.20;;;;;;5115619;28;20195;-70
2024/02/13 10:21:35;;;;;;;3.22;1.45;;;16.90;58.30;;;;;;5115272;28;20209;-68
2024/02/13 10:24:20;;;;;;;3.08;1.48;;;16.80;58.40;;;;;;5114825;28;20628;-68
2024/02/13 10:26:46;;;;;;;3.10;1.63;;;16.80;58.50;;;;;;5115510;28;20576;-68
2024/02/13 10:29:12;;;;;;;3.75;1.65;;;16.80;58.60;;;;;;5115551;28;20218;-68
2024/02/13 10:31:38;;;;;;;1.77;1.60;;;16.70;58.60;;;;;;5114473;28;20569;-69
2024/02/13 10:34:11;;;;;;;1.92;1.30;;;16.70;58.60;;;;;;5115195;28;20179;-71
2024/02/13 10:36:37;;;;;;;4.90;1.83;;;16.80;58.60;;;;;;5113869;28;20550;-70
2024/02/13 10:39:05;;;;;;;3.03;1.30;;;16.80;58.40;;;;;;5114503;28;20264;-69
2024/02/13 10:41:33;;;;;;;2.65;1.30;;;16.90;58.30;;;;;;5115081;28;20177;-69
2024/02/13 10:43:59;;;;;;;3.10;1.83;;;16.90;58.30;;;;;;5114063;28;20181;-71
2024/02/13 10:46:24;;;;;;;2.58;1.75;;;17.00;58.20;;;;;;5112880;28;20676;-71
2024/02/13 10:49:02;;;;;;;4.13;1.65;;;16.90;58.10;;;;;;5113883;28;20653;-70
2024/02/13 10:51:28;;;;;;;1.55;1.30;;;17.00;58.10;;;;;;5113995;28;20245;-68
2024/02/13 10:53:55;;;;;;;3.25;1.33;;;17.00;58.10;;;;;;5114822;28;20245;-67
2024/02/13 10:56:21;;;;;;;2.55;1.30;;;17.00;58.10;;;;;;5113515;28;20204;-68
2024/02/13 10:58:47;;;;;;;2.75;1.33;;;17.00;58.10;;;;;;5112940;28;20172;-67
2024/02/13 11:01:14;;;;;;;1.83;1.55;;;17.00;58.10;;;;;;5113516;28;20169;-70
2024/02/13 11:03:40;;;;;;;1.35;1.08;;;17.00;58.20;;;;;;5112718;28;20183;-71
2024/02/13 11:06:06;;;;;;;2.95;1.50;;;17.00;58.40;;;;;;5113100;28;20260;-72
2024/02/13 11:08:32;;;;;;;1.95;1.52;;;16.90;58.30;;;;;;5114536;28;20591;-73
2024/02/13 11:11:03;;;;;;;1.67;1.27;;;16.90;58.40;;;;;;5114696;28;20655;-72
2024/02/13 11:13:29;;;;;;;2.90;1.63;;;16.90;58.50;;;;;;5112495;28;20185;-72
2024/02/13 11:15:58;;;;;;;3.75;1.40;;;16.90;58.50;;;;;;5114423;28;20679;-72
2024/02/13 11:18:23;;;;;;;4.45;1.42;;;16.90;58.70;;;;;;5113996;28;20169;-72
2024/02/13 11:20:50;;;;;;;2.50;1.17;;;16.90;58.60;;;;;;5113550;28;20184;-71
2024/02/13 11:23:16;;;;;;;3.13;1.70;;;16.90;58.80;;;;;;5114616;28;20176;-72
2024/02/13 11:25:44;;;;;;;2.70;1.20;;;16.90;58.80;;;;;;5114220;28;20173;-71
2024/02/13 11:28:10;;;;;;;3.50;1.30;;;16.90;58.60;;;;;;5113643;28;20231;-71
2024/02/13 11:30:43;;;;;;;3.25;1.33;;;17.00;58.90;;;;;;5113798;28;20169;-72
2024/02/13 11:33:11;;;;;;;3.72;1.42;;;17.00;58.40;;;;;;5114060;28;20256;-71
2024/02/13 11:35:37;;;;;;;2.40;1.40;;;17.00;58.50;;;;;;5113203;28;20217;-72
2024/02/13 11:38:10;;;;;;;3.58;1.67;;;17.00;58.50;;;;;;5114270;28;20181;-70
2024/02/13 11:40:40;;;;;;;5.35;1.63;;;17.00;59.20;;;;;;5113174;28;20180;-72
2024/02/13 11:43:09;;;;;;;3.10;1.60;;;17.00;58.40;;;;;;5113985;28;20204;-71
2024/02/13 11:45:35;;;;;;;4.18;1.55;;;17.00;59.60;;;;;;5112137;28;20674;-72
2024/02/13 11:48:00;;;;;;;2.22;1.40;;;17.00;58.60;;;;;;5111794;28;20205;-70
2024/02/13 11:50:26;;;;;;;5.20;1.80;;;16.90;58.50;;;;;;5113438;28;20256;-71
2024/02/13 11:52:52;;;;;;;4.40;1.52;;;16.90;58.60;;;;;;5113959;28;20204;-72
2024/02/13 11:55:19;;;;;;;1.90;1.42;;;16.90;58.60;;;;;;5112639;28;20319;-73
2024/02/13 11:57:44;;;;;;;2.42;1.23;;;16.90;58.70;;;;;;5113722;28;20269;-73
2024/02/13 12:00:18;;;;;;;2.92;1.45;;;16.90;58.60;;;;;;5113699;28;20208;-73
2024/02/13 12:02:47;;;;;;;2.20;1.50;;;17.00;58.50;;;;;;5113290;28;20226;-73
2024/02/13 12:05:15;;;;;;;2.95;1.67;;;17.00;58.60;;;;;;5113587;28;20639;-72
2024/02/13 12:07:44;;;;;;;3.28;1.52;;;17.10;58.50;;;;;;5113458;28;20178;-73
2024/02/13 12:10:10;;;;;;;1.77;1.30;;;17.10;58.50;;;;;;5111771;28;20264;-71
2024/02/13 12:12:35;;;;;;;3.92;1.27;;;17.10;58.50;;;;;;5113238;28;20181;-72
2024/02/13 12:15:03;;;;;;;3.30;1.30;;;17.10;58.60;;;;;;5111937;28;20208;-73
2024/02/13 12:17:32;;;;;;;3.80;1.83;;;17.00;58.60;;;;;;5111051;28;20184;-70
2024/02/13 12:19:57;;;;;;;3.35;1.30;;;17.00;58.60;;;;;;5113447;28;20216;-71
2024/02/13 12:22:26;;;;;;;2.10;1.08;;;17.00;58.70;;;;;;5112947;28;20212;-71
2024/02/13 12:24:51;;;;;;;2.83;1.30;;;17.00;59.40;;;;;;5112298;28;20226;-72
2024/02/13 12:27:18;;;;;;;3.72;1.42;;;17.10;58.80;;;;;;5112722;28;20166;-71
2024/02/13 12:29:44;;;;;;;1.75;1.10;;;17.10;58.70;;;;;;5111399;28;20177;-70
2024/02/13 12:32:15;;;;;;;2.10;1.17;;;17.10;58.70;;;;;;5111926;28;20164;-69
2024/02/13 12:34:42;;;;;;;1.38;0.98;;;17.10;58.60;;;;;;5112580;28;20207;-69
2024/02/13 12:37:08;;;;;;;1.65;1.08;;;17.20;58.60;;;;;;5112305;28;20181;-69
2024/02/13 12:39:36;;;;;;;3.63;1.30;;;17.20;58.50;;;;;;5112563;28;20180;-70
2024/02/13 12:42:02;;;;;;;3.15;1.23;;;17.10;58.50;;;;;;5112854;28;20191;-72
2024/02/13 12:44:30;;;;;;;1.60;1.30;;;17.10;58.80;;;;;;5112054;28;20184;-72
2024/02/13 12:46:56;;;;;;;2.28;1.20;;;17.10;58.80;;;;;;5112601;28;20177;-72